Time;durP1;ratioP1;P1;durP2;ratioP2;P2;SDS_P1;SDS_P2;PMS_P1;PMS_P2;Temp;Humidity;BMP_temperature;BMP_pressure;BME280_temperature;BME280_humidity;BME280_pressure;Samples;Min_cycle;Max_cycle;Signal;HPM_P1;HPM_P2
2022/09/05 05:00:14;;;;;;;5.00;3.30;;;17.50;97.20;;;;;;1762552;28;20653;-71
2022/09/05 05:01:09;;;;;;;3.30;3.10;;;17.50;97.20;;;;;;1760851;28;20226;-71
2022/09/05 05:02:05;;;;;;;3.00;2.63;;;17.50;97.20;;;;;;1762546;28;20197;-71
2022/09/05 05:02:59;;;;;;;8.20;3.08;;;17.50;97.20;;;;;;1762578;28;20205;-71
2022/09/05 05:03:51;;;;;;;3.72;2.80;;;17.50;97.20;;;;;;1762550;28;20193;-71
2022/09/05 05:04:42;;;;;;;3.08;2.78;;;17.50;97.20;;;;;;1762410;28;20220;-71
2022/09/05 05:05:50;;;;;;;3.67;3.20;;;17.50;97.20;;;;;;1762529;28;20281;-71
2022/09/05 05:06:49;;;;;;;3.67;3.38;;;17.50;97.20;;;;;;1762358;28;20524;-73
2022/09/05 05:07:50;;;;;;;3.40;3.10;;;17.50;97.20;;;;;;1762249;28;20632;-70
2022/09/05 05:08:45;;;;;;;2.65;2.45;;;17.50;97.20;;;;;;1762285;28;20212;-70
2022/09/05 05:09:42;;;;;;;3.42;2.75;;;17.50;97.20;;;;;;1755517;28;20225;-71
2022/09/05 05:10:36;;;;;;;4.93;3.13;;;17.50;97.20;;;;;;1755623;28;20285;-71
2022/09/05 05:11:43;;;;;;;4.40;2.80;;;17.40;97.20;;;;;;1755383;28;20221;-70
2022/09/05 05:12:56;;;;;;;3.65;2.80;;;17.50;97.20;;;;;;1755494;28;20198;-71
2022/09/05 05:13:53;;;;;;;2.88;2.55;;;17.40;97.20;;;;;;1755501;28;20222;-71
2022/09/05 05:14:48;;;;;;;5.30;3.30;;;17.50;97.20;;;;;;1755421;28;20210;-71
2022/09/05 05:15:50;;;;;;;3.13;2.80;;;17.40;97.20;;;;;;1755406;28;20267;-70
2022/09/05 05:16:47;;;;;;;3.78;2.83;;;17.50;97.20;;;;;;1755284;28;20269;-73
2022/09/05 05:17:50;;;;;;;3.00;2.80;;;17.50;97.20;;;;;;1756303;28;20540;-73
2022/09/05 05:18:46;;;;;;;4.13;3.00;;;17.50;97.20;;;;;;1755315;28;20206;-71
2022/09/05 05:19:44;;;;;;;3.00;2.80;;;17.50;97.20;;;;;;1755417;28;20213;-71
2022/09/05 05:20:41;;;;;;;3.15;2.70;;;17.50;97.20;;;;;;1755440;28;20197;-71
2022/09/05 05:21:33;;;;;;;4.05;3.30;;;17.50;97.20;;;;;;1755371;28;20194;-71
2022/09/05 05:22:24;;;;;;;4.05;2.85;;;17.50;97.20;;;;;;1755365;28;20212;-71
2022/09/05 05:23:18;;;;;;;2.90;2.60;;;17.50;97.20;;;;;;1755491;28;20197;-71
2022/09/05 05:24:13;;;;;;;3.00;2.72;;;17.60;97.20;;;;;;1755229;28;20444;-71
2022/09/05 05:25:11;;;;;;;3.60;3.30;;;17.60;97.20;;;;;;1755315;28;20605;-71
2022/09/05 05:26:05;;;;;;;3.35;3.05;;;17.60;97.20;;;;;;1755317;28;20206;-71
2022/09/05 05:27:07;;;;;;;4.22;3.08;;;17.60;97.20;;;;;;1755320;28;20528;-71
2022/09/05 05:28:10;;;;;;;3.38;3.00;;;17.60;97.20;;;;;;1755153;28;20202;-70
2022/09/05 05:29:08;;;;;;;2.40;2.20;;;17.60;97.20;;;;;;1755318;28;20197;-71
2022/09/05 05:30:03;;;;;;;2.72;2.53;;;17.60;97.20;;;;;;1755458;28;20213;-71
2022/09/05 05:31:07;;;;;;;3.55;3.25;;;17.60;97.20;;;;;;1755381;28;20218;-71
2022/09/05 05:32:01;;;;;;;3.75;3.22;;;17.60;97.20;;;;;;1755387;28;20225;-71
2022/09/05 05:32:54;;;;;;;4.38;2.90;;;17.60;97.20;;;;;;1755259;28;20197;-71
2022/09/05 05:33:49;;;;;;;3.72;2.88;;;17.60;97.20;;;;;;1756260;28;20212;-71
2022/09/05 05:34:46;;;;;;;3.28;2.60;;;17.60;97.20;;;;;;1755236;28;20753;-71
2022/09/05 05:35:38;;;;;;;3.50;2.92;;;17.60;97.20;;;;;;1755333;28;20734;-71
2022/09/05 05:36:34;;;;;;;3.03;2.83;;;17.60;97.20;;;;;;1755187;28;20251;-71
2022/09/05 05:37:30;;;;;;;3.10;2.78;;;17.60;97.20;;;;;;1755006;28;20198;-71
2022/09/05 05:38:34;;;;;;;2.83;2.63;;;17.60;97.20;;;;;;1759922;28;20333;-71
2022/09/05 05:39:27;;;;;;;4.07;2.90;;;17.60;97.20;;;;;;1761886;28;20209;-71
2022/09/05 05:40:24;;;;;;;3.50;3.20;;;17.60;97.20;;;;;;1761762;28;20193;-71
2022/09/05 05:41:20;;;;;;;4.70;3.22;;;17.60;97.20;;;;;;1758732;28;20280;-71
2022/09/05 05:42:15;;;;;;;3.95;3.50;;;17.60;97.20;;;;;;1754691;28;20205;-72
2022/09/05 05:43:14;;;;;;;4.72;3.40;;;17.60;97.20;;;;;;1756014;28;20335;-71
2022/09/05 05:44:13;;;;;;;3.38;3.13;;;17.60;97.20;;;;;;1761741;28;20266;-71
2022/09/05 05:45:14;;;;;;;4.65;3.20;;;17.60;97.20;;;;;;1762124;28;20655;-71
2022/09/05 05:46:11;;;;;;;5.50;3.10;;;17.60;97.20;;;;;;1761869;28;20241;-72
2022/09/05 05:47:07;;;;;;;3.97;3.67;;;17.60;97.20;;;;;;1761407;28;20623;-72
2022/09/05 05:48:03;;;;;;;4.47;3.60;;;17.70;97.20;;;;;;1761700;28;20197;-72
2022/09/05 05:49:06;;;;;;;3.78;3.47;;;17.70;97.20;;;;;;1762031;28;20182;-71
2022/09/05 05:50:02;;;;;;;4.65;3.50;;;17.70;97.20;;;;;;1761937;27;20197;-71
2022/09/05 05:51:09;;;;;;;3.67;3.38;;;17.70;97.20;;;;;;1756324;28;20193;-72
2022/09/05 05:52:19;;;;;;;3.60;3.30;;;17.70;97.20;;;;;;1755085;28;20273;-72
2022/09/05 05:53:28;;;;;;;4.00;3.70;;;17.70;97.20;;;;;;1755027;28;20221;-71
2022/09/05 05:54:28;;;;;;;4.75;3.60;;;17.80;97.20;;;;;;1755081;28;20210;-71
2022/09/05 05:55:42;;;;;;;3.63;3.25;;;17.80;97.20;;;;;;1755075;28;20570;-72
2022/09/05 05:56:52;;;;;;;3.33;3.08;;;17.80;97.20;;;;;;1754933;28;20225;-71
2022/09/05 05:58:10;;;;;;;4.88;3.67;;;17.80;97.20;;;;;;1754539;28;20237;-71
2022/09/05 05:59:13;;;;;;;4.00;3.70;;;17.90;97.20;;;;;;1755026;28;20202;-72
2022/09/05 06:00:13;;;;;;;4.53;3.55;;;17.90;97.20;;;;;;1755165;28;20182;-72
2022/09/05 06:01:46;;;;;;;5.60;3.97;;;17.90;97.20;;;;;;1755026;28;20575;-71
2022/09/05 06:03:10;;;;;;;4.30;3.67;;;17.90;97.20;;;;;;1754921;28;20190;-71
2022/09/05 06:04:34;;;;;;;4.78;3.90;;;18.00;97.20;;;;;;1755140;28;20229;-71
2022/09/05 06:05:53;;;;;;;5.32;4.05;;;18.00;97.20;;;;;;1727737;28;20214;-71
2022/09/05 06:07:01;;;;;;;4.93;3.67;;;18.00;97.20;;;;;;1761719;28;20220;-71
2022/09/05 06:08:06;;;;;;;3.60;3.30;;;18.10;97.20;;;;;;1761552;28;20569;-71
2022/09/05 06:09:36;;;;;;;4.15;3.75;;;18.10;97.20;;;;;;1762078;28;20201;-71
2022/09/05 06:11:03;;;;;;;4.05;3.65;;;18.10;97.20;;;;;;1761853;28;20224;-71
2022/09/05 06:12:44;;;;;;;4.55;3.80;;;18.10;97.20;;;;;;1756599;28;20201;-71
2022/09/05 06:14:03;;;;;;;3.50;3.20;;;18.10;97.20;;;;;;1740325;28;20188;-71
2022/09/05 06:15:26;;;;;;;3.88;3.50;;;18.20;97.20;;;;;;1740119;28;20230;-71
2022/09/05 06:16:46;;;;;;;3.13;2.92;;;18.20;97.20;;;;;;1744499;28;20201;-71
2022/09/05 06:18:16;;;;;;;4.22;3.45;;;18.20;97.20;;;;;;1761473;28;20193;-71
2022/09/05 06:19:41;;;;;;;4.03;3.20;;;18.20;97.20;;;;;;1761745;28;20280;-72
2022/09/05 06:21:04;;;;;;;5.30;2.80;;;18.30;97.20;;;;;;1760132;28;20189;-71
2022/09/05 06:22:19;;;;;;;3.20;3.00;;;18.30;97.20;;;;;;1761859;28;20182;-71
2022/09/05 06:23:46;;;;;;;4.00;3.33;;;18.30;97.20;;;;;;1752594;28;20199;-71
2022/09/05 06:25:14;;;;;;;4.35;3.42;;;18.30;97.20;;;;;;1730289;28;20245;-71
2022/09/05 06:26:20;;;;;;;4.28;3.40;;;18.30;97.20;;;;;;1761823;28;20208;-71
2022/09/05 06:27:37;;;;;;;3.50;3.20;;;18.30;97.20;;;;;;1761139;28;20182;-71
2022/09/05 06:28:42;;;;;;;3.50;3.20;;;18.40;97.20;;;;;;1761683;28;20655;-71
2022/09/05 06:29:48;;;;;;;4.05;2.97;;;18.40;97.20;;;;;;1761964;28;20676;-71
2022/09/05 06:30:46;;;;;;;3.35;3.10;;;18.40;97.20;;;;;;1761914;28;20204;-71
2022/09/05 06:32:00;;;;;;;3.63;3.10;;;18.40;97.20;;;;;;1761875;28;20237;-71
2022/09/05 06:33:03;;;;;;;4.35;3.53;;;18.40;97.20;;;;;;1761940;28;20180;-72
2022/09/05 06:34:13;;;;;;;3.25;2.95;;;18.50;97.20;;;;;;1761948;28;20185;-71
2022/09/05 06:35:21;;;;;;;3.67;3.15;;;18.50;97.20;;;;;;1761764;28;20556;-71
2022/09/05 06:36:25;;;;;;;3.22;2.97;;;18.50;97.20;;;;;;1761803;28;20201;-71
2022/09/05 06:37:25;;;;;;;3.10;2.90;;;18.60;97.20;;;;;;1760002;28;20186;-72
2022/09/05 06:38:28;;;;;;;3.65;3.28;;;18.60;97.20;;;;;;1762007;28;20588;-71
2022/09/05 06:39:31;;;;;;;3.10;2.90;;;18.60;97.20;;;;;;1761439;28;20189;-71
2022/09/05 06:40:28;;;;;;;3.67;3.38;;;18.60;97.20;;;;;;1761798;28;20203;-71
2022/09/05 06:41:29;;;;;;;3.60;3.28;;;18.70;97.20;;;;;;1761958;28;20208;-71
2022/09/05 06:42:26;;;;;;;4.07;3.55;;;18.70;97.20;;;;;;1761653;28;20198;-71
2022/09/05 06:43:31;;;;;;;3.38;3.17;;;18.80;97.20;;;;;;1761703;28;20209;-71
2022/09/05 06:44:40;;;;;;;3.45;3.15;;;18.80;97.20;;;;;;1761860;28;20205;-71
2022/09/05 06:45:49;;;;;;;4.13;3.70;;;18.80;97.20;;;;;;1761798;28;20197;-71
2022/09/05 06:46:43;;;;;;;3.20;3.00;;;18.90;97.20;;;;;;1761465;28;20637;-72
2022/09/05 06:47:36;;;;;;;3.45;3.25;;;18.90;97.20;;;;;;1761223;28;20205;-71
2022/09/05 06:48:33;;;;;;;5.90;3.15;;;18.90;97.20;;;;;;1757502;28;20237;-70
2022/09/05 06:49:32;;;;;;;3.38;3.08;;;19.00;97.20;;;;;;1754805;28;20187;-71
2022/09/05 06:50:32;;;;;;;3.50;3.20;;;19.00;97.20;;;;;;1754442;28;20560;-71
2022/09/05 06:51:47;;;;;;;5.35;3.20;;;19.10;97.20;;;;;;1754811;28;20197;-71
2022/09/05 06:53:05;;;;;;;3.85;3.15;;;19.10;97.20;;;;;;1754756;28;20192;-71
2022/09/05 06:54:13;;;;;;;3.22;2.80;;;19.20;97.20;;;;;;1753775;28;20296;-71
2022/09/05 06:55:46;;;;;;;3.58;2.97;;;19.20;97.20;;;;;;1754741;28;20198;-71
2022/09/05 06:56:49;;;;;;;3.80;3.10;;;19.30;97.20;;;;;;1754639;28;20711;-72
2022/09/05 06:58:25;;;;;;;3.35;3.05;;;19.30;97.20;;;;;;1754272;28;20213;-73
2022/09/05 07:00:09;;;;;;;3.92;3.10;;;19.40;97.20;;;;;;1754733;28;20202;-73
2022/09/05 07:01:03;;;;;;;3.03;2.83;;;19.40;97.20;;;;;;1753834;28;20273;-72
2022/09/05 07:02:07;;;;;;;3.20;2.80;;;19.40;97.20;;;;;;1753700;28;20194;-72
2022/09/05 07:03:18;;;;;;;3.15;2.83;;;19.40;97.20;;;;;;1753969;28;20301;-72
2022/09/05 07:04:21;;;;;;;5.53;3.13;;;19.40;97.20;;;;;;1752711;28;20292;-72
2022/09/05 07:05:25;;;;;;;3.47;3.17;;;19.50;97.20;;;;;;1746924;28;20226;-71
2022/09/05 07:06:26;;;;;;;3.13;2.83;;;19.50;97.20;;;;;;1746708;28;20588;-71
2022/09/05 07:07:22;;;;;;;3.17;2.85;;;19.50;97.20;;;;;;1754011;28;20202;-71
2022/09/05 07:08:25;;;;;;;2.75;2.55;;;19.60;97.20;;;;;;1754727;28;20216;-71
2022/09/05 07:09:23;;;;;;;4.18;3.17;;;19.60;97.20;;;;;;1754053;28;20254;-71
2022/09/05 07:10:23;;;;;;;4.50;2.70;;;19.70;97.20;;;;;;1754271;28;20604;-71
2022/09/05 07:11:18;;;;;;;2.92;2.70;;;19.80;97.20;;;;;;1754741;28;20577;-70
2022/09/05 07:12:16;;;;;;;2.80;2.60;;;19.80;97.20;;;;;;1754685;28;20281;-71
2022/09/05 07:13:13;;;;;;;3.45;2.63;;;19.90;97.20;;;;;;1760333;28;20682;-71
2022/09/05 07:14:14;;;;;;;3.80;3.15;;;19.90;97.20;;;;;;1759328;28;20244;-70
2022/09/05 07:15:13;;;;;;;2.50;2.30;;;19.90;97.20;;;;;;1754536;28;20194;-71
2022/09/05 07:16:15;;;;;;;3.10;2.90;;;20.00;97.20;;;;;;1761152;28;20197;-71
2022/09/05 07:17:12;;;;;;;3.05;2.85;;;20.00;97.20;;;;;;1754545;28;20649;-71
2022/09/05 07:18:12;;;;;;;3.13;2.83;;;20.10;97.20;;;;;;1761413;28;20710;-71
2022/09/05 07:19:16;;;;;;;3.00;2.75;;;20.10;97.20;;;;;;1761284;28;20196;-71
2022/09/05 07:20:18;;;;;;;3.10;2.80;;;20.20;97.20;;;;;;1761631;28;20573;-71
2022/09/05 07:21:18;;;;;;;3.25;2.95;;;20.20;97.20;;;;;;1761685;28;20201;-71
2022/09/05 07:22:27;;;;;;;3.10;2.80;;;20.30;97.20;;;;;;1761610;28;20193;-71
2022/09/05 07:23:39;;;;;;;3.90;3.40;;;20.40;97.20;;;;;;1761714;28;20186;-71
2022/09/05 07:24:32;;;;;;;7.78;3.30;;;20.40;97.20;;;;;;1761747;28;20226;-70
2022/09/05 07:25:28;;;;;;;2.95;2.65;;;20.50;97.20;;;;;;1761439;28;20248;-71
2022/09/05 07:26:20;;;;;;;3.08;2.53;;;20.50;97.20;;;;;;1760988;28;20186;-71
2022/09/05 07:27:29;;;;;;;4.13;3.40;;;20.60;97.20;;;;;;1753815;28;20281;-70
2022/09/05 07:28:21;;;;;;;3.60;2.70;;;20.60;97.20;;;;;;1754596;28;20202;-71
2022/09/05 07:29:16;;;;;;;2.72;2.53;;;20.70;97.20;;;;;;1755337;28;20198;-70
2022/09/05 07:30:10;;;;;;;3.00;2.65;;;20.70;97.20;;;;;;1761763;28;20276;-70
2022/09/05 07:31:07;;;;;;;3.17;2.78;;;20.70;97.20;;;;;;1761514;28;20197;-71
2022/09/05 07:32:00;;;;;;;4.90;2.80;;;20.70;97.20;;;;;;1761745;28;20674;-71
2022/09/05 07:32:56;;;;;;;2.80;2.60;;;20.80;97.20;;;;;;1761323;28;20220;-70
2022/09/05 07:33:47;;;;;;;2.70;2.50;;;20.80;97.20;;;;;;1761530;28;20201;-71
2022/09/05 07:34:39;;;;;;;3.35;3.05;;;20.80;97.20;;;;;;1761073;28;20208;-71
2022/09/05 07:35:33;;;;;;;4.72;3.20;;;20.80;97.20;;;;;;1760699;28;20201;-71
2022/09/05 07:36:32;;;;;;;2.97;2.67;;;20.90;97.20;;;;;;1760932;28;20204;-71
2022/09/05 07:37:28;;;;;;;5.40;3.40;;;20.90;97.20;;;;;;1760465;28;20205;-71
2022/09/05 07:38:23;;;;;;;3.13;2.83;;;21.00;97.20;;;;;;1761058;28;20205;-70
2022/09/05 07:39:18;;;;;;;4.38;3.50;;;21.00;97.20;;;;;;1760950;28;20201;-71
2022/09/05 07:40:15;;;;;;;3.28;3.08;;;21.10;97.20;;;;;;1760978;28;20185;-70
2022/09/05 07:41:17;;;;;;;5.28;3.22;;;21.10;97.20;;;;;;1754005;28;20198;-70
2022/09/05 07:42:16;;;;;;;3.47;3.17;;;21.20;97.20;;;;;;1754070;28;20331;-70
2022/09/05 07:43:11;;;;;;;3.17;2.90;;;21.30;97.20;;;;;;1753859;28;20233;-70
2022/09/05 07:44:08;;;;;;;4.40;2.97;;;21.30;97.20;;;;;;1754063;28;20217;-70
2022/09/05 07:45:07;;;;;;;3.15;2.95;;;21.40;97.20;;;;;;1753904;28;20213;-71
2022/09/05 07:46:10;;;;;;;3.00;2.72;;;21.40;97.20;;;;;;1754352;28;20606;-70
2022/09/05 07:47:05;;;;;;;3.45;2.75;;;21.40;97.20;;;;;;1754080;28;20198;-71
2022/09/05 07:48:03;;;;;;;4.25;2.95;;;21.40;97.20;;;;;;1753781;28;20805;-70
2022/09/05 07:48:59;;;;;;;3.72;3.42;;;21.50;97.20;;;;;;1754076;28;20198;-70
2022/09/05 07:49:53;;;;;;;5.30;2.97;;;21.50;97.20;;;;;;1754588;28;20193;-70
2022/09/05 07:50:49;;;;;;;2.40;2.30;;;21.60;97.20;;;;;;1754645;28;20198;-70
2022/09/05 07:51:52;;;;;;;2.80;2.60;;;21.60;97.20;;;;;;1754793;28;20264;-70
2022/09/05 07:52:44;;;;;;;2.90;2.70;;;21.60;97.20;;;;;;1754606;28;20197;-70
2022/09/05 07:53:37;;;;;;;4.28;2.38;;;21.60;97.20;;;;;;1754634;28;20193;-71
2022/09/05 07:54:32;;;;;;;2.88;2.67;;;21.60;97.20;;;;;;1757696;28;20200;-71
2022/09/05 07:55:29;;;;;;;3.00;2.80;;;21.60;97.20;;;;;;1761461;28;20198;-71
2022/09/05 07:56:40;;;;;;;3.03;2.83;;;21.70;97.20;;;;;;1761676;28;20205;-70
2022/09/05 07:57:38;;;;;;;2.63;2.42;;;21.70;97.20;;;;;;1761185;28;20182;-71
2022/09/05 07:58:40;;;;;;;3.03;2.83;;;21.70;97.20;;;;;;1761448;28;20687;-71
2022/09/05 07:59:34;;;;;;;2.80;2.53;;;21.80;97.20;;;;;;1761630;28;20232;-71
2022/09/05 08:00:28;;;;;;;2.50;2.30;;;21.80;97.20;;;;;;1761561;28;20209;-71
2022/09/05 08:01:22;;;;;;;3.60;2.60;;;21.80;97.20;;;;;;1761685;28;20189;-71
2022/09/05 08:02:13;;;;;;;3.30;2.60;;;21.90;97.20;;;;;;1762376;28;20239;-71
2022/09/05 08:03:11;;;;;;;3.00;2.53;;;21.90;97.20;;;;;;1762764;28;20209;-72
2022/09/05 08:04:02;;;;;;;2.92;2.72;;;22.00;97.20;;;;;;1762961;28;20434;-72
2022/09/05 08:05:02;;;;;;;2.60;2.40;;;22.00;97.20;;;;;;1762876;28;20605;-71
2022/09/05 08:05:58;;;;;;;2.55;2.35;;;22.10;97.20;;;;;;1756741;28;20686;-71
2022/09/05 08:06:51;;;;;;;3.20;2.40;;;22.10;97.20;;;;;;1761390;28;20219;-71
2022/09/05 08:07:46;;;;;;;3.20;2.90;;;22.10;97.20;;;;;;1762282;28;20231;-71
2022/09/05 08:08:50;;;;;;;3.97;2.65;;;22.20;97.20;;;;;;1762033;28;20190;-71
2022/09/05 08:09:45;;;;;;;3.78;3.00;;;22.20;97.20;;;;;;1762747;28;20198;-71
2022/09/05 08:10:44;;;;;;;2.65;2.45;;;22.30;97.20;;;;;;1762757;28;20571;-71
2022/09/05 08:11:36;;;;;;;3.00;2.75;;;22.30;97.20;;;;;;1762904;27;20261;-71
2022/09/05 08:12:34;;;;;;;2.70;2.50;;;22.30;97.20;;;;;;1762337;28;20231;-71
2022/09/05 08:13:41;;;;;;;2.70;2.47;;;22.40;97.20;;;;;;1761343;28;20201;-71
2022/09/05 08:14:44;;;;;;;3.95;2.38;;;22.40;97.20;;;;;;1761908;28;20201;-71
2022/09/05 08:15:38;;;;;;;2.88;2.67;;;22.40;97.20;;;;;;1757028;27;20201;-72
2022/09/05 08:16:33;;;;;;;2.60;2.40;;;22.50;97.20;;;;;;1757572;28;20326;-72
2022/09/05 08:17:25;;;;;;;2.70;2.50;;;22.50;97.20;;;;;;1761590;28;20627;-71
2022/09/05 08:18:25;;;;;;;3.22;2.50;;;22.50;97.20;;;;;;1762663;27;20207;-72
2022/09/05 08:19:54;;;;;;;3.17;2.97;;;22.50;97.20;;;;;;1762709;28;20344;-71
2022/09/05 08:20:48;;;;;;;2.08;1.98;;;22.60;97.20;;;;;;1741127;28;20705;-72
2022/09/05 08:21:47;;;;;;;2.45;2.25;;;22.60;97.20;;;;;;1754464;28;20201;-71
2022/09/05 08:22:47;;;;;;;2.45;2.25;;;22.70;97.20;;;;;;1762770;28;20287;-72
2022/09/05 08:23:50;;;;;;;2.55;2.35;;;22.70;97.20;;;;;;1762830;28;20659;-71
2022/09/05 08:24:47;;;;;;;2.80;2.60;;;22.70;97.20;;;;;;1762929;28;20208;-72
2022/09/05 08:25:56;;;;;;;2.38;2.10;;;22.70;97.20;;;;;;1762831;28;20274;-71
2022/09/05 08:26:52;;;;;;;2.55;2.35;;;22.80;97.20;;;;;;1762186;28;20221;-72
2022/09/05 08:28:00;;;;;;;2.60;2.42;;;22.80;97.20;;;;;;1762123;28;20630;-72
2022/09/05 08:28:58;;;;;;;2.75;2.50;;;22.80;97.20;;;;;;1762734;28;20209;-71
2022/09/05 08:29:54;;;;;;;2.85;2.65;;;22.90;97.20;;;;;;1761443;28;20260;-71
2022/09/05 08:30:49;;;;;;;2.72;2.53;;;22.90;97.20;;;;;;1759703;28;20197;-71
2022/09/05 08:31:46;;;;;;;2.80;2.60;;;22.90;97.20;;;;;;1760577;28;20198;-72
2022/09/05 08:32:43;;;;;;;2.60;2.40;;;22.90;97.20;;;;;;1756082;28;20724;-70
2022/09/05 08:33:37;;;;;;;2.63;2.42;;;23.00;97.20;;;;;;1755815;28;20202;-71
2022/09/05 08:34:37;;;;;;;2.65;2.45;;;23.00;97.20;;;;;;1755792;28;20202;-71
2022/09/05 08:35:38;;;;;;;2.85;2.65;;;23.10;97.20;;;;;;1761363;28;20262;-71
2022/09/05 08:36:35;;;;;;;3.35;2.45;;;23.10;97.20;;;;;;1761901;28;20212;-72
2022/09/05 08:37:27;;;;;;;3.25;2.38;;;23.20;97.20;;;;;;1761939;27;20189;-71
2022/09/05 08:38:19;;;;;;;2.92;2.72;;;23.20;97.20;;;;;;1762074;28;20205;-71
2022/09/05 08:39:12;;;;;;;2.88;2.63;;;23.30;97.20;;;;;;1762300;28;20702;-71
2022/09/05 08:40:10;;;;;;;2.60;2.50;;;23.30;97.20;;;;;;1762688;28;20564;-72
2022/09/05 08:41:10;;;;;;;2.30;2.10;;;23.40;97.20;;;;;;1761052;28;20537;-72
2022/09/05 08:42:15;;;;;;;2.60;2.40;;;23.50;97.20;;;;;;1760929;28;20197;-72
2022/09/05 08:43:16;;;;;;;2.70;2.50;;;23.50;97.20;;;;;;1755715;28;20622;-72
2022/09/05 08:44:14;;;;;;;3.80;2.90;;;23.60;97.20;;;;;;1755407;28;20212;-73
2022/09/05 08:45:16;;;;;;;2.65;2.38;;;23.60;97.20;;;;;;1755630;28;20225;-73
2022/09/05 08:46:14;;;;;;;2.88;2.67;;;23.70;97.20;;;;;;1764188;27;20216;-72
2022/09/05 08:47:18;;;;;;;2.88;2.33;;;23.70;97.20;;;;;;1769591;27;20200;-73
2022/09/05 08:48:20;;;;;;;4.63;4.10;;;23.80;97.20;;;;;;1769704;27;20192;-73
2022/09/05 08:49:35;;;;;;;3.03;2.72;;;23.80;97.20;;;;;;1769394;27;20200;-73
2022/09/05 08:50:39;;;;;;;2.85;2.65;;;23.90;97.20;;;;;;1758297;27;20201;-73
2022/09/05 08:51:38;;;;;;;2.30;2.20;;;23.90;97.20;;;;;;1762495;27;20205;-72
2022/09/05 08:52:42;;;;;;;2.42;2.22;;;24.00;97.20;;;;;;1762640;28;20205;-72
2022/09/05 08:53:47;;;;;;;5.25;2.88;;;24.00;97.20;;;;;;1762728;28;20217;-72
2022/09/05 08:54:52;;;;;;;2.60;2.40;;;24.10;97.20;;;;;;1762637;27;20276;-72
2022/09/05 08:55:50;;;;;;;3.03;2.83;;;24.10;97.20;;;;;;1762593;28;20228;-72
2022/09/05 08:56:52;;;;;;;2.50;2.20;;;24.20;97.20;;;;;;1762285;28;20224;-72
2022/09/05 08:57:57;;;;;;;2.63;2.42;;;24.20;97.20;;;;;;1761981;28;20201;-72
2022/09/05 08:58:58;;;;;;;3.85;2.60;;;24.30;97.20;;;;;;1762254;27;20197;-72
2022/09/05 09:00:00;;;;;;;2.47;2.30;;;24.30;97.20;;;;;;1762546;28;20224;-72
2022/09/05 09:00:55;;;;;;;2.88;2.67;;;24.30;97.20;;;;;;1762637;28;20193;-72
2022/09/05 09:02:14;;;;;;;2.80;2.60;;;24.40;97.20;;;;;;1760895;28;20210;-72
2022/09/05 09:03:23;;;;;;;2.72;2.53;;;24.40;97.20;;;;;;1755517;28;20567;-73
2022/09/05 09:04:22;;;;;;;3.17;2.97;;;24.50;97.20;;;;;;1755544;28;20198;-72
2022/09/05 09:05:30;;;;;;;2.83;2.63;;;24.60;97.20;;;;;;1760701;28;20242;-73
2022/09/05 09:06:43;;;;;;;3.40;2.70;;;24.60;97.20;;;;;;1762545;28;20208;-74
2022/09/05 09:07:39;;;;;;;2.75;2.55;;;24.60;97.20;;;;;;1762929;27;20190;-73
2022/09/05 09:08:41;;;;;;;3.03;2.83;;;24.70;97.20;;;;;;1769483;27;20235;-73
2022/09/05 09:09:42;;;;;;;2.72;2.53;;;24.80;97.20;;;;;;1764568;27;20196;-73
2022/09/05 09:10:45;;;;;;;3.28;2.80;;;24.80;97.20;;;;;;1755391;28;20220;-73
2022/09/05 09:11:42;;;;;;;3.30;2.60;;;24.90;97.20;;;;;;1755439;28;20186;-73
2022/09/05 09:12:57;;;;;;;3.28;2.97;;;25.00;97.20;;;;;;1755345;28;20210;-73
2022/09/05 09:13:54;;;;;;;2.70;2.42;;;25.00;97.20;;;;;;1755481;28;20232;-72
2022/09/05 09:14:54;;;;;;;5.53;2.90;;;25.10;97.20;;;;;;1755530;28;20369;-72
2022/09/05 09:15:53;;;;;;;3.42;2.83;;;25.10;97.20;;;;;;1755419;28;20204;-72
2022/09/05 09:16:57;;;;;;;2.40;2.20;;;25.20;97.20;;;;;;1754996;28;20218;-72
2022/09/05 09:17:50;;;;;;;2.78;2.58;;;25.30;97.20;;;;;;1757209;28;20612;-73
2022/09/05 09:19:02;;;;;;;4.10;2.58;;;25.30;97.20;;;;;;1762241;28;20205;-73
2022/09/05 09:20:16;;;;;;;2.80;2.35;;;25.40;97.20;;;;;;1755280;28;20186;-72
2022/09/05 09:21:25;;;;;;;4.13;2.30;;;25.40;97.20;;;;;;1740637;28;20202;-72
2022/09/05 09:22:29;;;;;;;4.20;2.53;;;25.40;97.20;;;;;;1755353;28;20277;-72
2022/09/05 09:23:39;;;;;;;2.72;2.53;;;25.40;97.20;;;;;;1758274;28;20225;-72
2022/09/05 09:24:38;;;;;;;3.13;2.78;;;25.40;97.20;;;;;;1761986;28;20212;-72
2022/09/05 09:25:37;;;;;;;2.78;2.58;;;25.40;97.20;;;;;;1762290;28;20185;-72
2022/09/05 09:26:32;;;;;;;3.33;2.60;;;25.40;97.20;;;;;;1762185;28;20238;-73
2022/09/05 09:27:32;;;;;;;3.03;2.20;;;25.40;97.20;;;;;;1761785;28;20280;-71
2022/09/05 09:28:52;;;;;;;2.47;2.30;;;25.50;97.20;;;;;;1762319;28;20726;-71
2022/09/05 09:29:43;;;;;;;3.00;2.80;;;25.60;97.20;;;;;;1762347;28;20190;-72
2022/09/05 09:30:40;;;;;;;2.65;2.45;;;25.60;97.20;;;;;;1761758;28;20195;-72
2022/09/05 09:31:38;;;;;;;2.60;2.42;;;25.70;97.20;;;;;;1762384;28;20208;-72
2022/09/05 09:32:30;;;;;;;2.45;2.25;;;25.70;97.20;;;;;;1762298;28;20201;-71
2022/09/05 09:33:33;;;;;;;2.83;2.63;;;25.80;97.20;;;;;;1762244;28;20209;-71
2022/09/05 09:34:54;;;;;;;4.93;2.55;;;25.90;97.20;;;;;;1762222;28;20552;-72
2022/09/05 09:35:53;;;;;;;4.30;2.88;;;25.90;97.20;;;;;;1762418;28;20624;-72
2022/09/05 09:37:16;;;;;;;2.75;2.35;;;26.00;97.20;;;;;;1761660;28;20615;-72
2022/09/05 09:38:48;;;;;;;2.67;2.47;;;26.00;97.20;;;;;;1762277;28;20189;-72
2022/09/05 09:40:03;;;;;;;3.25;2.97;;;26.00;97.20;;;;;;1761850;28;20205;-71
2022/09/05 09:41:28;;;;;;;2.65;2.38;;;26.10;97.20;;;;;;1749871;27;20202;-72
2022/09/05 09:42:32;;;;;;;2.90;2.70;;;26.10;97.20;;;;;;1755231;28;20217;-72
2022/09/05 09:43:27;;;;;;;2.80;2.50;;;26.20;97.20;;;;;;1756321;28;20240;-72
2022/09/05 09:45:01;;;;;;;2.72;2.40;;;26.30;97.20;;;;;;1761589;28;20271;-72
2022/09/05 09:46:16;;;;;;;2.72;2.53;;;26.40;97.20;;;;;;1762135;28;20194;-72
2022/09/05 09:47:12;;;;;;;2.72;2.53;;;26.50;97.20;;;;;;1760177;28;20196;-72
2022/09/05 09:48:47;;;;;;;2.90;2.50;;;26.60;97.20;;;;;;1762320;28;20189;-72
2022/09/05 09:50:02;;;;;;;2.67;2.47;;;26.70;97.20;;;;;;1761937;28;20201;-72
2022/09/05 09:51:10;;;;;;;3.45;3.15;;;26.80;97.20;;;;;;1760810;28;20192;-71
2022/09/05 09:52:38;;;;;;;2.92;2.60;;;26.80;97.20;;;;;;1757718;28;20288;-72
2022/09/05 09:53:41;;;;;;;2.63;2.42;;;26.90;97.20;;;;;;1740463;28;20195;-72
2022/09/05 09:55:10;;;;;;;3.10;2.80;;;27.10;97.20;;;;;;1757209;28;20720;-72
2022/09/05 09:56:39;;;;;;;2.50;2.30;;;27.10;97.20;;;;;;1761757;28;20193;-72
2022/09/05 09:57:58;;;;;;;2.50;2.30;;;27.10;97.20;;;;;;1755662;28;20206;-73
2022/09/05 09:59:21;;;;;;;2.42;2.22;;;27.10;97.20;;;;;;1761596;28;20216;-72
2022/09/05 10:00:16;;;;;;;2.60;2.40;;;27.20;97.20;;;;;;1762174;28;20596;-72
2022/09/05 10:01:20;;;;;;;3.75;2.78;;;27.20;97.20;;;;;;1762066;28;20548;-73
2022/09/05 10:02:37;;;;;;;2.80;2.60;;;27.20;97.20;;;;;;1762211;28;20200;-72
2022/09/05 10:03:39;;;;;;;2.90;2.70;;;27.30;97.20;;;;;;1754866;28;20218;-72
2022/09/05 10:04:49;;;;;;;2.90;2.70;;;27.40;97.20;;;;;;1754923;28;20202;-73
2022/09/05 10:06:14;;;;;;;2.47;2.28;;;27.50;97.20;;;;;;1755122;28;20206;-72
2022/09/05 10:07:32;;;;;;;2.53;2.33;;;27.60;97.20;;;;;;1744288;28;20198;-72
2022/09/05 10:09:00;;;;;;;2.72;2.53;;;27.60;97.20;;;;;;1755878;28;20210;-72
2022/09/05 10:10:28;;;;;;;2.90;2.70;;;27.70;97.20;;;;;;1761916;28;20197;-72
2022/09/05 10:11:39;;;;;;;2.95;2.70;;;27.80;97.20;;;;;;1742211;28;20709;-72
2022/09/05 10:12:52;;;;;;;3.28;2.97;;;27.90;97.20;;;;;;1760954;28;20205;-72
2022/09/05 10:14:06;;;;;;;2.88;2.65;;;28.00;97.20;;;;;;1762044;28;20543;-72
2022/09/05 10:15:10;;;;;;;4.80;2.35;;;28.10;97.20;;;;;;1755041;28;20663;-72
2022/09/05 10:16:37;;;;;;;2.63;2.40;;;28.20;97.20;;;;;;1755038;28;20571;-74
2022/09/05 10:18:17;;;;;;;2.90;2.55;;;28.20;97.20;;;;;;1754576;28;20193;-72
2022/09/05 10:19:33;;;;;;;2.58;2.28;;;28.20;97.20;;;;;;1732326;28;20319;-73
2022/09/05 10:21:01;;;;;;;2.67;2.43;;;28.30;97.20;;;;;;1733568;28;20282;-72
2022/09/05 10:22:20;;;;;;;2.30;2.20;;;28.40;97.20;;;;;;1733485;28;20501;-72
2022/09/05 10:23:34;;;;;;;4.00;2.33;;;28.50;97.20;;;;;;1733447;28;20235;-72
2022/09/05 10:24:52;;;;;;;2.60;2.40;;;28.50;97.20;;;;;;1736213;28;20234;-71
2022/09/05 10:26:17;;;;;;;2.60;2.40;;;28.60;97.20;;;;;;1754946;28;20283;-72
2022/09/05 10:27:48;;;;;;;2.25;2.03;;;28.70;97.20;;;;;;1762073;28;20189;-72
2022/09/05 10:28:54;;;;;;;2.50;2.30;;;28.80;97.20;;;;;;1753213;27;20232;-71
2022/09/05 10:30:03;;;;;;;2.47;2.28;;;28.80;97.20;;;;;;1762053;28;20205;-72
2022/09/05 10:31:05;;;;;;;3.03;2.30;;;28.90;97.20;;;;;;1755017;28;20720;-72
2022/09/05 10:32:04;;;;;;;3.05;2.78;;;29.00;97.20;;;;;;1755139;28;20814;-72
2022/09/05 10:33:30;;;;;;;2.57;2.37;;;29.00;97.20;;;;;;1755028;28;20293;-71
2022/09/05 10:34:23;;;;;;;2.33;2.13;;;29.10;97.20;;;;;;1750001;28;20456;-73